NEODyS-2

Near Earth Objects - Dynamic Site
NEODyS ∴ Observatories ∴ Site 691 ∴ Obs & residuals
Contact »
691  ▹ 
OBSERVATIONS AND RESIDUALS

691-Steward Observatory, Kitt Peak-Spacewatch

Detections | Residuals | Detections & Residuals

[1-200] [201-400] [401-600] [601-800] [801-1000] [1001-1200] [1201-1400] [1401-1600] [1601-1800] [1801-2000] [2001-2200] [2201-2400] [2401-2600] [2601-2800] [2801-3000] [3001-3200] [3201-3400] [3401-3600] [3601-3800] [3801-4000] [4001-4200] [4201-4400] [4401-4600] [4601-4800] [4801-5000] [5001-5200] [5201-5400] [5401-5600] [5601-5800] [5801-6000] [6001-6200] [6201-6400] [6401-6600] [6601-6800] [6801-7000] [7001-7200] [7201-7400] [7401-7600] [7601-7800] [7801-8000] [8001-8200] [8201-8400] [8401-8600] [8601-8800] [8801-9000] [9001-9200] [9201-9400] [9401-9600] [9601-9800] [9801-10000] [10001-10200] [10201-10400] [10401-10600] [10601-10800] [10801-11000] [11001-11200] [11201-11400] [11401-11600] [11601-11800] [11801-12000] [12001-12200] [12201-12400] [12401-12600] [12601-12800] [12801-13000] [13001-13200] [13201-13400] [13401-13600] [13601-13800] [13801-14000] [14001-14200] [14201-14400] [14401-14600] [14601-14800] [14801-15000] [15001-15200] [15201-15400] [15401-15600] [15601-15800] [15801-16000] [16001-16200] [16201-16400] [16401-16600] [16601-16800] [16801-17000] [17001-17200] [17201-17400] [17401-17600] [17601-17800] [17801-18000] [18001-18200] [18201-18400] [18401-18600] [18601-18800] [18801-19000] [19001-19200] [19201-19400] [19401-19600] [19601-19800] [19801-20000] [20001-20200] [20201-20400] [20401-20600] [20601-20800] [20801-21000] [21001-21200] [21201-21400] [21401-21600] [21601-21800] [21801-22000] [22001-22200] [22201-22400] [22401-22600] [22601-22800] [22801-23000] [23001-23200] [23201-23400] [23401-23600] [23601-23800] [23801-24000] [24001-24200] [24201-24400] [24401-24600] [24601-24800] [24801-25000] [25001-25200] [25201-25400] [25401-25600] [25601-25800] [25801-26000] [26001-26200] [26201-26400] [26401-26600] [26601-26800] [26801-27000] [27001-27200] [27201-27400] [27401-27600] [27601-27800] [27801-28000] [28001-28200] [28201-28400] [28401-28600] [28601-28800] [28801-29000] [29001-29200] [29201-29400] [29401-29600] [29601-29800] [29801-30000] [30001-30200] [30201-30400] [30401-30600] [30601-30800] [30801-31000] [31001-31200] [31201-31400] [31401-31600] [31601-31800] [31801-32000] [32001-32200] [32201-32400] [32401-32600] [32601-32800] [32801-33000] [33001-33200] [33201-33400] [33401-33600] [33601-33800] [33801-34000] [34001-34200] [34201-34400] [34401-34600] [34601-34800] [34801-35000] [35001-35200] [35201-35400] [35401-35600] [35601-35800] [35801-36000] [36001-36200] [36201-36400] [36401-36600] [36601-36800] [36801-37000] [37001-37200] [37201-37400] [37401-37600] [37601-37800] [37801-38000] [38001-38200] [38201-38400] [38401-38600] [38601-38800] [38801-39000] [39001-39200] [39201-39400] [39401-39600] [39601-39800] [39801-40000] [40001-40200] [40201-40400] [40401-40600] [40601-40800] [40801-41000] [41001-41200] [41201-41400] [41401-41600] [41601-41800] [41801-42000] [42001-42200] [42201-42400] [42401-42600] [42601-42800] [42801-43000] [43001-43200] [43201-43400] [43401-43600] [43601-43800] [43801-44000] [44001-44200] [44201-44400] [44401-44600] [44601-44800] [44801-45000] [45001-45200] [45201-45400] [45401-45600] [45601-45800] [45801-46000] [46001-46200] [46201-46400] [46401-46600] [46601-46800] [46801-47000] [47001-47200] [47201-47400] [47401-47600] [47601-47800] [47801-48000] [48001-48200] [48201-48400] [48401-48600] [48601-48800] [48801-49000] [49001-49200] [49201-49400] [49401-49600] [49601-49800] [49801-50000] [50001-50200] [50201-50400] [50401-50600] [50601-50741]

Designation T Tech N Date Right Ascension Declination Apparent Magnitude Star Catalog Site code χ Used A Used M
yr-mo-day precision hr:min:sec precision rms F bias residual deg min sec precision rms F bias residual mag/col rms residual
2006UC63 O C 2006-11-01.18729 1.000E-05 01:30:03.690 1.500E-01 0.500 F -0.191 0.117 +14° 13' 40.90" 1.000E-01 0.500 F 0.415 -0.563 21.0 V 0.70 -0.02 c 691 1.15 Yes Yes
2006UC63 O C 2006-11-01.19719 1.000E-05 01:30:02.840 1.500E-01 0.500 F -0.191 0.201 +14° 13' 28.00" 1.000E-01 0.500 F 0.415 -0.248 20.6 V 0.70 -0.42 c 691 0.64 Yes Yes
2006SX217 O C 2006-11-01.26590 1.000E-05 02:11:29.600 1.500E-01 0.500 F -0.013 0.149 +17° 39' 55.40" 1.000E-01 0.500 F 0.326 -0.277 20.3 V 0.70 0.12 c 691 0.63 Yes Yes
2006UC185 O C 2006-11-01.27330 1.000E-05 02:24:28.210 1.500E-01 0.500 F -0.176 0.121 +16° 11' 56.50" 1.000E-01 0.500 F 0.552 -0.142 17.7 V 0.70 0.54 c 691 0.38 Yes Yes
2006SX217 O C 2006-11-01.28322 1.000E-05 02:11:27.070 1.500E-01 0.500 F -0.013 -0.126 +17° 40' 00.00" 1.000E-01 0.500 F 0.326 -0.115 20.4 V 0.70 0.21 c 691 0.34 Yes Yes
2006UC185 O C 2006-11-01.29061 1.000E-05 02:24:31.430 1.500E-01 0.500 F -0.176 0.132 +16° 13' 57.20" 1.000E-01 0.500 F 0.552 -0.093 17.6 V 0.70 0.43 c 691 0.33 Yes Yes
2006SX217 O C 2006-11-01.30055 1.000E-05 02:11:24.570 1.500E-01 0.500 F -0.013 0.052 +17° 40' 04.60" 1.000E-01 0.500 F 0.326 0.080 20.5 V 0.70 0.31 c 691 0.19 Yes Yes
2006UC185 O C 2006-11-01.30794 1.000E-05 02:24:34.640 1.500E-01 0.500 F -0.176 0.191 +16° 15' 56.70" 1.000E-01 0.500 F 0.552 -0.414 17.7 V 0.70 0.53 c 691 0.93 Yes Yes
1999FP59 O C 2006-11-02.32767 1.000E-05 03:09:55.820 1.500E-01 0.500 F -0.030 0.272 +19° 50' 00.20" 1.000E-01 0.500 F 0.390 0.288 c 691 0.80 Yes No
1999FP59 O C 2006-11-02.33229 1.000E-05 03:09:55.340 1.500E-01 0.500 F -0.030 -0.149 +19° 49' 58.70" 1.000E-01 0.500 F 0.390 -0.238 c 691 0.56 Yes No
1999FP59 O C 2006-11-02.33704 1.000E-05 03:09:54.890 1.500E-01 0.500 F -0.030 0.031 +19° 49' 57.80" 1.000E-01 0.500 F 0.390 -0.133 c 691 0.27 Yes No
2006SK450 O C 2006-11-09.23094 1.000E-05 03:16:07.280 1.500E-01 0.500 F -0.075 -0.130 +22° 43' 05.50" 1.000E-01 0.500 F 0.298 0.004 c 691 0.27 Yes No
2004WG1 O C 2006-11-09.24630 1.000E-05 03:05:36.420 1.500E-01 0.500 F -0.171 0.166 +20° 26' 14.10" 1.000E-01 0.500 F 0.344 -0.157 c 691 0.46 Yes No
2006SK450 O C 2006-11-09.24881 1.000E-05 03:16:05.770 1.500E-01 0.500 F -0.075 0.124 +22° 43' 17.40" 1.000E-01 0.500 F 0.298 -0.203 c 691 0.49 Yes No
2004WG1 O C 2006-11-09.26410 1.000E-05 03:05:33.970 1.500E-01 0.500 F -0.171 0.046 +20° 26' 14.00" 1.000E-01 0.500 F 0.344 -0.033 c 691 0.11 Yes No
2006SK450 O C 2006-11-09.26662 1.000E-05 03:16:04.220 1.500E-01 0.500 F -0.075 -0.180 +22° 43' 29.60" 1.000E-01 0.500 F 0.298 0.003 c 691 0.37 Yes No
2004WG1 O C 2006-11-09.28190 1.000E-05 03:05:31.520 1.500E-01 0.500 F -0.171 -0.053 +20° 26' 13.80" 1.000E-01 0.500 F 0.344 0.031 c 691 0.12 Yes No
2006RA55 O C 2006-11-10.08244 1.000E-05 01:24:28.720 1.500E-01 0.500 F -0.197 0.027 +11° 15' 48.00" 1.000E-01 0.500 F 0.241 -0.030 19.0 V 0.70 0.28 c 691 0.08 Yes Yes
2006RA55 O C 2006-11-10.10036 1.000E-05 01:24:28.230 1.500E-01 0.500 F -0.197 -0.118 +11° 15' 52.30" 1.000E-01 0.500 F 0.241 -0.245 19.1 V 0.70 0.38 c 691 0.55 Yes Yes
2006RA55 O C 2006-11-10.11827 1.000E-05 01:24:27.750 1.500E-01 0.500 F -0.197 0.070 +11° 15' 56.80" 1.000E-01 0.500 F 0.241 -0.227 19.1 V 0.70 0.38 c 691 0.48 Yes Yes
2006SV134 O C 2006-11-10.14073 1.000E-05 01:58:30.430 1.500E-01 0.500 F -0.059 -0.111 +09° 59' 20.30" 1.000E-01 0.500 F 0.536 0.220 20.5 V 0.70 0.12 c 691 0.50 Yes Yes
2006SV134 O C 2006-11-10.15619 1.000E-05 01:58:29.470 1.500E-01 0.500 F -0.059 0.063 +09° 59' 00.30" 1.000E-01 0.500 F 0.536 -0.166 21.2 V 0.70 0.82 c 691 0.36 Yes Yes
2006SV134 O C 2006-11-10.17165 1.000E-05 01:58:28.480 1.500E-01 0.500 F -0.059 -0.168 +09° 58' 41.10" 1.000E-01 0.500 F 0.536 0.252 20.6 V 0.70 0.22 c 691 0.61 Yes Yes
2006WH1 O C 2006-11-10.22138 1.000E-05 04:13:30.210 1.500E-01 0.500 F 0.205 1.186 +22° 54' 33.30" 1.000E-01 0.500 F 0.387 0.241 19.4 V 0.70 0.23 c 691 2.43 Yes Yes
2006WH1 O C 2006-11-10.23870 1.000E-05 04:13:29.790 1.500E-01 0.500 F 0.205 -0.205 +22° 54' 27.60" 1.000E-01 0.500 F 0.387 -0.274 19.5 V 0.70 0.33 c 691 0.68 Yes Yes
2006WH1 O C 2006-11-10.25608 1.000E-05 04:13:29.460 1.500E-01 0.500 F 0.205 -0.146 +22° 54' 22.20" 1.000E-01 0.500 F 0.387 -0.379 19.5 V 0.70 0.33 c 691 0.81 Yes Yes
2000WN63 O C H 2006-11-10.27835 1.000E-05 04:42:49.790 1.500E-01 0.500 F -0.062 0.082 +24° 02' 29.50" 1.000E-01 0.500 F 0.312 -0.207 c 691 0.45 Yes No
2000WN63 O C H 2006-11-10.29575 1.000E-05 04:42:48.130 1.500E-01 0.500 F -0.062 -0.247 +24° 02' 35.70" 1.000E-01 0.500 F 0.312 -0.322 20.8 V 0.70 -0.27 c 691 0.81 Yes Yes
2000WN63 O C H 2006-11-10.31315 1.000E-05 04:42:46.590 1.500E-01 0.500 F -0.062 1.127 +24° 02' 41.30" 1.000E-01 0.500 F 0.312 -1.003 21.0 V 0.70 -0.06 c 691 3.02 Yes Yes
2002HF8 O C H 2006-11-10.39009 1.000E-05 05:41:53.340 1.500E-01 0.500 F 0.029 -0.551 +26° 08' 13.10" 1.000E-01 0.500 F 0.137 -0.590 c 691 1.64 Yes No
2002HF8 O C H 2006-11-10.42478 1.000E-05 05:41:51.150 1.500E-01 0.500 F 0.029 -0.585 +26° 08' 17.70" 1.000E-01 0.500 F 0.137 -0.156 c 691 1.24 Yes No
Anteros O C H 2006-11-10.43955 1.000E-05 05:55:03.470 1.500E-01 0.500 F -0.017 0.018 +23° 14' 14.70" 1.000E-01 0.500 F 0.378 -0.141 18.2 V 0.70 0.55 c 691 0.28 Yes Yes
Anteros O C H 2006-11-10.45697 1.000E-05 05:55:02.730 1.500E-01 0.500 F -0.017 -0.004 +23° 14' 07.40" 1.000E-01 0.500 F 0.378 -0.158 18.2 V 0.70 0.55 c 691 0.32 Yes Yes
Anteros O C H 2006-11-10.47437 1.000E-05 05:55:02.010 1.500E-01 0.500 F -0.017 0.228 +23° 13' 59.90" 1.000E-01 0.500 F 0.378 -0.341 c 691 0.82 Yes No
1998WT24 O C t 2006-11-10.49534 1.000E-05 10:56:56.500 1.500E-01 0.500 F 0.401 0.358 +08° 36' 15.90" 1.000E-01 0.500 F 0.467 -0.908 19.8 V 0.70 0.23 c 691 1.95 Yes Yes
1998WT24 O C t 2006-11-10.52015 1.000E-05 10:57:03.260 1.500E-01 0.500 F 0.401 0.360 +08° 35' 47.20" 1.000E-01 0.500 F 0.467 -0.979 20.0 V 0.70 0.43 c 691 2.09 Yes Yes
2006VT2 O C 2006-11-11.22313 1.000E-05 04:25:34.370 1.500E-01 0.500 F -0.031 0.185 +18° 13' 19.30" 1.000E-01 0.500 F 0.176 -0.473 19.5 V 0.70 -0.09 c 691 1.02 Yes Yes
2006VT2 O C 2006-11-11.24045 1.000E-05 04:25:31.340 1.500E-01 0.500 F -0.031 0.001 +18° 13' 29.00" 1.000E-01 0.500 F 0.176 -0.210 19.7 V 0.70 0.11 c 691 0.42 Yes Yes
2006VT2 O C 2006-11-11.25775 1.000E-05 04:25:28.310 1.500E-01 0.500 F -0.031 -0.131 +18° 13' 38.50" 1.000E-01 0.500 F 0.176 -0.111 19.9 V 0.70 0.31 c 691 0.35 Yes Yes
2006UP O C 2006-11-11.27258 1.000E-05 04:28:37.530 1.500E-01 0.500 F -0.017 -0.017 +22° 44' 31.60" 1.000E-01 0.500 F 0.208 0.111 20.6 V 0.70 0.37 c 691 0.22 Yes Yes
2006UP O C 2006-11-11.28994 1.000E-05 04:28:37.450 1.500E-01 0.500 F -0.017 -0.098 +22° 44' 48.70" 1.000E-01 0.500 F 0.208 -0.181 20.8 V 0.70 0.57 c 691 0.41 Yes Yes
2006UP O C 2006-11-11.30730 1.000E-05 04:28:37.360 1.500E-01 0.500 F -0.017 -0.072 +22° 45' 05.90" 1.000E-01 0.500 F 0.208 -0.166 20.5 V 0.70 0.27 c 691 0.36 Yes Yes
1999ML O C 2006-11-11.33438 1.000E-05 05:09:34.580 1.500E-01 0.500 F 0.152 -0.019 +20° 24' 33.90" 1.000E-01 0.500 F 0.004 -0.054 20.2 V 0.70 0.10 c 691 0.11 Yes Yes
1999ML O C 2006-11-11.35173 1.000E-05 05:09:33.280 1.500E-01 0.500 F 0.152 0.267 +20° 24' 30.40" 1.000E-01 0.500 F 0.004 -0.150 20.1 V 0.70 0.00 c 691 0.63 Yes Yes
1999ML O C 2006-11-11.36907 1.000E-05 05:09:31.960 1.500E-01 0.500 F 0.152 0.286 +20° 24' 27.30" 1.000E-01 0.500 F 0.004 0.181 20.1 V 0.70 0.00 c 691 0.70 Yes Yes
2006VY2 O C 2006-11-11.39160 1.000E-05 05:11:46.230 1.500E-01 0.500 F 0.146 0.123 +20° 50' 19.90" 1.000E-01 0.500 F 0.134 0.166 19.8 V 0.70 -0.15 c 691 0.43 Yes Yes
2006VY2 O C 2006-11-11.40898 1.000E-05 05:11:43.470 1.500E-01 0.500 F 0.146 0.072 +20° 48' 43.90" 1.000E-01 0.500 F 0.134 0.153 19.9 V 0.70 -0.05 c 691 0.35 Yes Yes
2006VY2 O C 2006-11-11.42638 1.000E-05 05:11:40.700 1.500E-01 0.500 F 0.146 -0.096 +20° 47' 07.20" 1.000E-01 0.500 F 0.134 -0.070 20.0 V 0.70 0.05 c 691 0.25 Yes Yes
1998YN1 O C t 2006-11-11.49680 1.000E-05 10:52:55.570 1.500E-01 0.500 F 0.339 0.865 +12° 39' 28.90" 1.000E-01 0.500 F 0.231 -0.209 20.6 V 0.70 0.37 c 691 1.79 Yes Yes
1998YN1 O C t 2006-11-11.50924 1.000E-05 10:52:58.410 1.500E-01 0.500 F 0.339 0.662 +12° 39' 14.10" 1.000E-01 0.500 F 0.231 -0.644 c 691 1.86 Yes No
2000XG47 O C 2006-11-13.13528 1.000E-05 02:06:28.790 1.500E-01 0.500 F -0.107 -0.107 +09° 24' 52.90" 1.000E-01 0.500 F 0.383 0.375 c 691 0.78 Yes No
1998WM O C 2006-11-13.13528 1.000E-05 02:01:27.910 1.500E-01 0.500 F -0.072 0.010 +09° 28' 26.30" 1.000E-01 0.500 F 0.345 0.006 c 691 0.02 Yes No
2000XG47 O C 2006-11-13.14811 1.000E-05 02:06:27.510 1.500E-01 0.500 F -0.107 -0.041 +09° 24' 53.50" 1.000E-01 0.500 F 0.383 -0.153 c 691 0.32 Yes No
1998WM O C 2006-11-13.14811 1.000E-05 02:01:25.790 1.500E-01 0.500 F -0.072 0.033 +09° 28' 34.60" 1.000E-01 0.500 F 0.345 -0.207 c 691 0.42 Yes No
2000XG47 O C 2006-11-13.16093 1.000E-05 02:06:26.220 1.500E-01 0.500 F -0.107 -0.117 +09° 24' 54.70" 1.000E-01 0.500 F 0.383 -0.075 c 691 0.28 Yes No
1998WM O C 2006-11-13.16093 1.000E-05 02:01:23.660 1.500E-01 0.500 F -0.072 -0.077 +09° 28' 43.20" 1.000E-01 0.500 F 0.345 -0.104 c 691 0.26 Yes No
2006TD1 O C H 2006-11-14.19714 1.000E-05 03:23:26.640 1.500E-01 0.500 F -0.047 0.094 +17° 18' 24.60" 1.000E-01 0.500 F 0.345 -0.180 19.2 V 0.70 0.78 c 691 0.41 Yes Yes
2006TD1 O C H 2006-11-14.21446 1.000E-05 03:23:27.070 1.500E-01 0.500 F -0.047 0.214 +17° 18' 39.80" 1.000E-01 0.500 F 0.345 -0.241 19.2 V 0.70 0.78 c 691 0.65 Yes Yes
1999JT3 O C 2006-11-14.26166 1.000E-05 04:18:23.650 1.500E-01 0.500 F -0.224 0.045 +20° 06' 49.50" 1.000E-01 0.500 F 0.299 -0.378 c 691 0.76 Yes No
1999JT3 O C 2006-11-14.28592 1.000E-05 04:18:21.650 1.500E-01 0.500 F -0.224 -0.118 +20° 06' 49.80" 1.000E-01 0.500 F 0.299 -0.498 c 691 1.03 Yes No
1999JT3 O C 2006-11-14.30330 1.000E-05 04:18:20.240 1.500E-01 0.500 F -0.224 0.115 +20° 06' 50.40" 1.000E-01 0.500 F 0.299 -0.175 c 691 0.42 Yes No
2000WN63 O C H 2006-11-14.32308 1.000E-05 04:36:11.140 1.500E-01 0.500 F -0.051 0.145 +24° 26' 09.50" 1.000E-01 0.500 F 0.282 0.238 21.2 V 0.70 0.35 c 691 0.56 Yes Yes
2006UP O C 2006-11-14.32558 1.000E-05 04:29:05.040 1.500E-01 0.500 F -0.036 0.086 +23° 30' 35.30" 1.000E-01 0.500 F 0.220 -0.329 c 691 0.68 Yes No
2000WN63 O C H 2006-11-14.34052 1.000E-05 04:36:09.260 1.500E-01 0.500 F -0.051 0.619 +24° 26' 15.00" 1.000E-01 0.500 F 0.282 -0.367 20.8 V 0.70 -0.05 c 691 1.44 Yes Yes
2006UP O C 2006-11-14.34301 1.000E-05 04:29:04.720 1.500E-01 0.500 F -0.036 -0.375 +23° 30' 50.20" 1.000E-01 0.500 F 0.220 -0.585 c 691 1.40 Yes No
2000WN63 O C H 2006-11-14.35794 1.000E-05 04:36:07.340 1.500E-01 0.500 F -0.051 0.541 +24° 26' 20.70" 1.000E-01 0.500 F 0.282 -0.724 c 691 1.81 Yes No
2006UP O C 2006-11-14.36044 1.000E-05 04:29:04.480 1.500E-01 0.500 F -0.036 0.296 +23° 31' 05.80" 1.000E-01 0.500 F 0.220 0.086 c 691 0.62 Yes No
2005YY128 O C 2006-11-15.17588 1.000E-05 03:22:54.520 1.500E-01 0.500 F -0.221 0.151 +24° 36' 41.20" 1.000E-01 0.500 F 0.255 -0.024 21.3 V 0.70 0.13 c 691 0.31 Yes Yes
2005YY128 O C 2006-11-15.19323 1.000E-05 03:22:52.450 1.500E-01 0.500 F -0.221 -0.554 +24° 36' 32.90" 1.000E-01 0.500 F 0.255 -0.486 21.3 V 0.70 0.13 c 691 1.48 Yes Yes
2005YY128 O C 2006-11-15.21353 1.000E-05 03:22:50.160 1.500E-01 0.500 F -0.221 0.465 +24° 36' 25.00" 1.000E-01 0.500 F 0.255 0.813 21.9 V 0.70 0.73 c 691 1.88 Yes Yes
2006VT2 O C t 2006-11-15.27932 1.000E-05 04:13:06.260 1.500E-01 0.500 F 0.020 0.877 +18° 49' 49.80" 1.000E-01 0.500 F 0.331 -0.322 19.6 V 0.70 0.31 c 691 1.87 Yes Yes
2006VT2 O C t 2006-11-15.29667 1.000E-05 04:13:02.740 1.500E-01 0.500 F 0.020 0.615 +18° 49' 59.10" 1.000E-01 0.500 F 0.331 -0.576 19.4 V 0.70 0.12 c 691 1.69 Yes Yes
2006VT2 O C t 2006-11-15.31538 1.000E-05 04:12:58.950 1.500E-01 0.500 F 0.020 0.480 +18° 50' 09.20" 1.000E-01 0.500 F 0.331 -0.737 19.4 V 0.70 0.12 c 691 1.76 Yes Yes
2006WH1 O C 2006-11-15.33197 1.000E-05 04:11:53.890 1.500E-01 0.500 F 0.205 0.016 +22° 19' 11.10" 1.000E-01 0.500 F 0.387 -0.066 18.9 V 0.70 0.26 c 691 0.14 Yes Yes
2006WH1 O C 2006-11-15.34941 1.000E-05 04:11:53.200 1.500E-01 0.500 F 0.205 -0.115 +22° 19' 02.40" 1.000E-01 0.500 F 0.387 0.030 18.9 V 0.70 0.26 c 691 0.23 Yes Yes
2006WH1 O C 2006-11-15.36678 1.000E-05 04:11:52.530 1.500E-01 0.500 F 0.205 -0.019 +22° 18' 53.60" 1.000E-01 0.500 F 0.387 0.124 18.9 V 0.70 0.26 c 691 0.25 Yes Yes
1999ML O C 2006-11-15.40445 1.000E-05 05:04:23.600 1.500E-01 0.500 F 0.022 -0.030 +20° 10' 42.20" 1.000E-01 0.500 F 0.219 -0.043 20.4 V 0.70 0.36 c 691 0.09 Yes Yes
1999ML O C 2006-11-15.42185 1.000E-05 05:04:22.160 1.500E-01 0.500 F 0.022 -0.113 +20° 10' 38.40" 1.000E-01 0.500 F 0.219 -0.147 20.1 V 0.70 0.06 c 691 0.36 Yes Yes
1999ML O C 2006-11-15.43924 1.000E-05 05:04:20.730 1.500E-01 0.500 F 0.022 -0.088 +20° 10' 34.60" 1.000E-01 0.500 F 0.219 -0.225 20.2 V 0.70 0.16 c 691 0.48 Yes Yes
2006SG77 O C 2006-11-16.13432 1.000E-05 03:00:39.190 1.500E-01 0.500 F -0.141 0.323 +20° 48' 11.70" 1.000E-01 0.500 F 0.361 -0.180 18.4 V 0.70 0.19 c 691 0.75 Yes Yes
2006SG77 O C 2006-11-16.15171 1.000E-05 03:00:42.210 1.500E-01 0.500 F -0.141 0.313 +20° 47' 40.50" 1.000E-01 0.500 F 0.361 -0.175 18.4 V 0.70 0.19 c 691 0.73 Yes Yes
2006SG77 O C 2006-11-16.16911 1.000E-05 03:00:45.220 1.500E-01 0.500 F -0.141 0.449 +20° 47' 09.20" 1.000E-01 0.500 F 0.361 -0.159 18.4 V 0.70 0.19 c 691 0.97 Yes Yes
2006WA O C 2006-11-16.17654 1.000E-05 03:52:48.170 1.500E-01 0.500 F -0.236 0.221 +15° 28' 14.60" 1.000E-01 0.500 F 0.509 -0.132 19.5 V 0.70 0.07 c 691 0.53 Yes Yes
2006WA O C 2006-11-16.18647 1.000E-05 03:52:46.220 1.500E-01 0.500 F -0.236 0.055 +15° 28' 39.80" 1.000E-01 0.500 F 0.509 -0.123 19.5 V 0.70 0.07 c 691 0.28 Yes Yes
2006WA O C 2006-11-16.19639 1.000E-05 03:52:44.260 1.500E-01 0.500 F -0.236 -0.236 +15° 29' 05.20" 1.000E-01 0.500 F 0.509 0.124 19.6 V 0.70 0.17 c 691 0.54 Yes Yes
2002HF8 O C H 2006-11-16.40153 1.000E-05 05:35:13.760 1.500E-01 0.500 F -0.072 -0.445 +26° 19' 06.60" 1.000E-01 0.500 F 0.084 1.239 22.3 V 0.70 0.60 c 691 2.65 Yes Yes
2002HF8 O C H 2006-11-16.41891 1.000E-05 05:35:12.540 1.500E-01 0.500 F -0.072 0.496 +26° 19' 06.70" 1.000E-01 0.500 F 0.084 -0.289 c 691 1.17 Yes No
2006BG O C H 2006-11-17.15973 1.000E-05 04:05:14.080 1.500E-01 0.500 F 0.094 -0.340 +26° 10' 42.20" 1.000E-01 0.500 F 0.441 -0.272 21.1 V 0.70 -0.75 c 691 0.87 Yes Yes
2006BG O C H 2006-11-17.19453 1.000E-05 04:05:10.050 1.500E-01 0.500 F 0.094 0.503 +26° 10' 30.90" 1.000E-01 0.500 F 0.441 0.568 c 691 1.52 Yes No
2006UN O C H 2006-11-17.34592 1.000E-05 05:36:50.920 1.500E-01 0.500 F -0.032 0.493 +30° 14' 30.40" 1.000E-01 0.500 F 0.321 -0.042 21.1 V 0.70 -0.19 c 691 1.04 Yes Yes
2006UN O C t 2006-11-17.36334 1.000E-05 05:36:53.510 1.500E-01 0.500 F -0.032 0.758 +30° 14' 21.80" 1.000E-01 0.500 F 0.321 -0.213 21.7 V 0.70 0.41 c 691 1.66 Yes Yes
2006UN O C H 2006-11-17.38079 1.000E-05 05:36:56.080 1.500E-01 0.500 F -0.032 0.946 +30° 14' 11.90" 1.000E-01 0.500 F 0.321 -1.076 c 691 3.01 Yes No
2006XD2 O C 2006-11-17.39568 1.000E-05 05:48:46.370 1.500E-01 0.500 F 0.058 0.117 +22° 22' 48.60" 1.000E-01 0.500 F 0.332 -0.204 19.8 V 0.70 -0.23 c 691 0.47 Yes Yes
Anteros O C 2006-11-17.39568 1.000E-05 05:49:11.630 1.500E-01 0.500 F 0.058 -0.360 +22° 22' 35.20" 1.000E-01 0.500 F 0.332 0.535 18.5 V 0.70 1.13 c 691 1.29 Yes Yes
2006WN1 O C 2006-11-17.39811 1.000E-05 05:50:59.260 1.500E-01 0.500 F 0.030 -0.291 +21° 52' 47.80" 1.000E-01 0.500 F 0.309 -0.213 20.6 V 0.70 -0.14 c 691 0.72 Yes Yes
Anteros O C 2006-11-17.41304 1.000E-05 05:49:10.440 1.500E-01 0.500 F 0.058 -0.791 +22° 22' 26.10" 1.000E-01 0.500 F 0.332 -0.242 17.5 V 0.70 0.13 c 691 1.66 Yes Yes
2006XD2 O C 2006-11-17.41304 1.000E-05 05:48:46.800 1.500E-01 0.500 F 0.058 -0.125 +22° 22' 57.90" 1.000E-01 0.500 F 0.332 -0.097 19.9 V 0.70 -0.13 c 691 0.32 Yes Yes
2006WN1 O C 2006-11-17.41547 1.000E-05 05:50:57.840 1.500E-01 0.500 F 0.030 -0.191 +21° 52' 43.70" 1.000E-01 0.500 F 0.309 -0.131 20.8 V 0.70 0.06 c 691 0.46 Yes Yes
2006XD2 O C 2006-11-17.43041 1.000E-05 05:48:47.250 1.500E-01 0.500 F 0.058 -0.116 +22° 23' 06.90" 1.000E-01 0.500 F 0.332 -0.191 20.1 V 0.70 0.07 c 691 0.45 Yes Yes
Anteros O C 2006-11-17.43041 1.000E-05 05:49:09.330 1.500E-01 0.500 F 0.058 -0.100 +22° 22' 17.80" 1.000E-01 0.500 F 0.332 -0.170 17.6 V 0.70 0.23 c 691 0.39 Yes Yes
2006WN1 O C 2006-11-17.43284 1.000E-05 05:50:56.410 1.500E-01 0.500 F 0.030 -0.222 +21° 52' 39.60" 1.000E-01 0.500 F 0.309 -0.008 20.8 V 0.70 0.06 c 691 0.44 Yes Yes
1999JT3 O C 2006-11-18.15681 1.000E-05 04:13:08.480 1.500E-01 0.500 F 0.014 -0.136 +20° 07' 15.90" 1.000E-01 0.500 F 0.267 -0.178 20.1 V 0.70 0.73 c 691 0.45 Yes Yes
1999JT3 O C 2006-11-18.17759 1.000E-05 04:13:06.730 1.500E-01 0.500 F 0.014 -0.513 +20° 07' 16.00" 1.000E-01 0.500 F 0.267 -0.290 19.6 V 0.70 0.24 c 691 1.18 Yes Yes
1999JT3 O C 2006-11-18.19498 1.000E-05 04:13:05.310 1.500E-01 0.500 F 0.014 -0.147 +20° 07' 16.20" 1.000E-01 0.500 F 0.267 -0.254 19.5 V 0.70 0.14 c 691 0.59 Yes Yes
2006UP O C 2006-11-18.21722 1.000E-05 04:29:02.200 1.500E-01 0.500 F -0.016 0.318 +24° 22' 29.50" 1.000E-01 0.500 F 0.239 -0.140 20.3 V 0.70 0.07 c 691 0.70 Yes Yes
2000WN63 O C 2006-11-18.21722 1.000E-05 04:28:50.860 1.500E-01 0.500 F -0.081 -0.144 +24° 48' 14.90" 1.000E-01 0.500 F 0.255 -0.108 20.9 V 0.70 0.27 c 691 0.36 Yes Yes
2006UP O C 2006-11-18.23462 1.000E-05 04:29:01.810 1.500E-01 0.500 F -0.016 0.072 +24° 22' 43.80" 1.000E-01 0.500 F 0.239 -0.049 20.6 V 0.70 0.37 c 691 0.18 Yes Yes
2000WN63 O C 2006-11-18.23462 1.000E-05 04:28:48.710 1.500E-01 0.500 F -0.081 -0.272 +24° 48' 20.80" 1.000E-01 0.500 F 0.255 -0.245 20.8 V 0.70 0.17 c 691 0.74 Yes Yes
2006UP O C 2006-11-18.25202 1.000E-05 04:29:01.420 1.500E-01 0.500 F -0.016 0.151 +24° 22' 58.00" 1.000E-01 0.500 F 0.239 0.122 20.9 V 0.70 0.67 c 691 0.39 Yes Yes
2000WN63 O C 2006-11-18.25202 1.000E-05 04:28:46.570 1.500E-01 0.500 F -0.081 -0.189 +24° 48' 27.00" 1.000E-01 0.500 F 0.255 -0.047 20.8 V 0.70 0.17 c 691 0.39 Yes Yes
1994LW O C H 2006-11-18.27686 1.000E-05 04:52:59.800 1.500E-01 0.500 F 0.024 -0.356 +17° 19' 22.90" 1.000E-01 0.500 F 0.134 -0.361 21.1 V 0.70 -0.65 c 691 1.02 Yes Yes
1994LW O C H 2006-11-18.29422 1.000E-05 04:52:58.810 1.500E-01 0.500 F 0.024 0.356 +17° 19' 16.90" 1.000E-01 0.500 F 0.134 -0.491 c 691 1.22 Yes No
1994LW O C H 2006-11-18.31158 1.000E-05 04:52:57.770 1.500E-01 0.500 F 0.024 0.368 +17° 19' 10.30" 1.000E-01 0.500 F 0.134 -1.210 c 691 2.54 Yes No
1994VA1 O C H 2006-11-18.31882 1.000E-05 05:21:03.280 1.500E-01 0.500 F 0.037 0.863 +18° 41' 07.20" 1.000E-01 0.500 F 0.221 -0.756 c 691 2.30 Yes No
2000WS67 O C H 2006-11-18.32125 1.000E-05 05:31:06.200 1.500E-01 0.500 F 0.015 -0.437 +19° 29' 03.00" 1.000E-01 0.500 F 0.161 -0.102 c 691 0.90 Yes No
1994VA1 O C H 2006-11-18.33613 1.000E-05 05:21:02.140 1.500E-01 0.500 F 0.037 0.077 +18° 40' 57.00" 1.000E-01 0.500 F 0.221 0.301 20.7 V 0.70 0.42 c 691 0.62 Yes Yes
2000WS67 O C t 2006-11-18.33856 1.000E-05 05:31:03.320 1.500E-01 0.500 F 0.015 0.225 +19° 29' 09.80" 1.000E-01 0.500 F 0.161 -0.872 20.7 V 0.70 0.27 c 691 1.82 Yes Yes
1994VA1 O C H 2006-11-18.35344 1.000E-05 05:21:01.040 1.500E-01 0.500 F 0.037 -0.097 +18° 40' 45.40" 1.000E-01 0.500 F 0.221 0.000 20.9 V 0.70 0.62 c 691 0.20 Yes Yes
2000WS67 O C t 2006-11-18.35587 1.000E-05 05:31:00.410 1.500E-01 0.500 F 0.015 0.497 +19° 29' 17.60" 1.000E-01 0.500 F 0.161 -0.608 21.8 V 0.70 1.37 c 691 1.58 Yes Yes
2001XV4 O C H 2006-11-18.37879 1.000E-05 05:53:59.940 1.500E-01 0.500 F 0.048 -0.136 +29° 40' 31.90" 1.000E-01 0.500 F 0.150 -0.132 20.1 V 0.70 0.32 c 691 0.38 Yes Yes
1997WU22 O C 2006-11-18.39363 1.000E-05 05:57:32.630 1.500E-01 0.500 F -0.035 -0.016 +27° 02' 46.10" 1.000E-01 0.500 F 0.146 -0.306 18.7 V 0.70 0.37 c 691 0.61 Yes Yes
2001XV4 O C H 2006-11-18.39615 1.000E-05 05:53:58.730 1.500E-01 0.500 F 0.048 -0.052 +29° 40' 18.20" 1.000E-01 0.500 F 0.150 -0.631 c 691 1.27 Yes No
1997WU22 O C 2006-11-18.41113 1.000E-05 05:57:31.270 1.500E-01 0.500 F -0.035 0.039 +27° 02' 39.70" 1.000E-01 0.500 F 0.146 -0.246 18.7 V 0.70 0.37 c 691 0.50 Yes Yes
2001XV4 O C H 2006-11-18.41365 1.000E-05 05:53:57.550 1.500E-01 0.500 F 0.048 0.565 +29° 40' 04.60" 1.000E-01 0.500 F 0.150 -0.876 c 691 2.10 Yes No
1997WU22 O C 2006-11-18.42856 1.000E-05 05:57:29.910 1.500E-01 0.500 F -0.035 0.028 +27° 02' 33.40" 1.000E-01 0.500 F 0.146 -0.072 18.6 V 0.70 0.27 c 691 0.15 Yes Yes
2015XD130 O C 2006-11-18.43619 1.000E-05 06:52:27.720 1.500E-01 0.500 F -0.038 -0.271 +23° 18' 39.60" 1.000E-01 0.500 F 0.287 -0.262 20.5 V 0.70 -0.08 c 691 0.77 Yes Yes
2015XD130 O C 2006-11-18.45358 1.000E-05 06:52:27.420 1.500E-01 0.500 F -0.038 -0.121 +23° 18' 01.20" 1.000E-01 0.500 F 0.287 -0.110 20.6 V 0.70 0.02 c 691 0.33 Yes Yes
2015XD130 O C 2006-11-18.47098 1.000E-05 06:52:27.120 1.500E-01 0.500 F -0.038 0.034 +23° 17' 22.70" 1.000E-01 0.500 F 0.287 0.048 20.8 V 0.70 0.22 c 691 0.12 Yes Yes
2006WR1 O C 2006-11-18.48950 1.000E-05 11:10:04.750 1.500E-01 0.500 F 0.413 -0.443 +12° 36' 29.50" 1.000E-01 0.500 F 0.275 0.566 20.9 V 0.70 0.50 c 691 1.44 Yes Yes
2000XH44 O C 2006-11-18.49193 1.000E-05 11:17:54.240 1.500E-01 0.500 F 0.456 -0.126 +12° 24' 42.90" 1.000E-01 0.500 F 0.347 -0.139 19.5 V 0.70 0.46 c 691 0.37 Yes Yes
2006MJ10 O C H 2006-11-18.49709 1.000E-05 10:51:05.410 1.500E-01 0.500 F 0.353 0.118 +11° 41' 12.90" 1.000E-01 0.500 F 0.192 -0.742 c 691 1.51 Yes No
2006WR1 O C 2006-11-18.50196 1.000E-05 11:10:08.170 1.500E-01 0.500 F 0.413 0.085 +12° 36' 29.50" 1.000E-01 0.500 F 0.275 0.142 20.8 V 0.70 0.40 c 691 0.33 Yes Yes
2000XH44 O C 2006-11-18.50440 1.000E-05 11:17:56.520 1.500E-01 0.500 F 0.456 -0.237 +12° 24' 24.40" 1.000E-01 0.500 F 0.347 -0.092 19.5 V 0.70 0.46 c 691 0.51 Yes Yes
2006MJ10 O C H 2006-11-18.50955 1.000E-05 10:51:06.790 1.500E-01 0.500 F 0.353 0.051 +11° 41' 30.00" 1.000E-01 0.500 F 0.192 -1.757 c 691 3.50 No No
2006WR1 O C 2006-11-18.51442 1.000E-05 11:10:11.520 1.500E-01 0.500 F 0.413 -0.396 +12° 36' 29.90" 1.000E-01 0.500 F 0.275 0.125 20.7 V 0.70 0.30 c 691 0.84 Yes Yes
2000XH44 O C 2006-11-18.51685 1.000E-05 11:17:58.810 1.500E-01 0.500 F 0.456 -0.125 +12° 24' 05.90" 1.000E-01 0.500 F 0.347 -0.067 19.7 V 0.70 0.66 c 691 0.28 Yes Yes
2006UC63 O C H 2006-11-19.07763 1.000E-05 01:10:41.030 1.500E-01 0.500 F -0.011 0.167 +08° 03' 01.70" 1.000E-01 0.500 F 0.231 0.326 21.2 V 0.70 -0.38 c 691 0.73 Yes Yes
2006UC63 O C H 2006-11-19.09584 1.000E-05 01:10:40.220 1.500E-01 0.500 F -0.011 0.527 +08° 02' 41.30" 1.000E-01 0.500 F 0.231 -0.573 21.4 V 0.70 -0.18 c 691 1.56 Yes Yes
2006UC63 O C H 2006-11-19.11406 1.000E-05 01:10:39.430 1.500E-01 0.500 F -0.011 1.242 +08° 02' 21.80" 1.000E-01 0.500 F 0.231 -0.558 21.3 V 0.70 -0.28 c 691 2.73 Yes Yes
2006VT2 O C 2006-11-19.16996 1.000E-05 03:59:30.150 1.500E-01 0.500 F -0.126 -0.182 +19° 25' 02.20" 1.000E-01 0.500 F 0.417 -0.031 19.3 V 0.70 0.36 c 691 0.37 Yes Yes
2006VT2 O C 2006-11-19.18735 1.000E-05 03:59:26.260 1.500E-01 0.500 F -0.126 0.105 +19° 25' 11.80" 1.000E-01 0.500 F 0.417 -0.074 19.3 V 0.70 0.36 c 691 0.26 Yes Yes
2006VT2 O C 2006-11-19.20467 1.000E-05 03:59:22.340 1.500E-01 0.500 F -0.126 -0.139 +19° 25' 21.40" 1.000E-01 0.500 F 0.417 -0.048 19.4 V 0.70 0.46 c 691 0.30 Yes Yes
2006WH1 O C 2006-11-19.22191 1.000E-05 04:09:44.710 1.500E-01 0.500 F -0.006 -0.075 +21° 41' 36.00" 1.000E-01 0.500 F 0.315 -0.266 18.5 V 0.70 0.31 c 691 0.55 Yes Yes
2006WH1 O C 2006-11-19.23919 1.000E-05 04:09:43.810 1.500E-01 0.500 F -0.006 -0.128 +21° 41' 25.10" 1.000E-01 0.500 F 0.315 -0.359 18.5 V 0.70 0.32 c 691 0.76 Yes Yes
2006WH1 O C 2006-11-19.25653 1.000E-05 04:09:42.900 1.500E-01 0.500 F -0.006 -0.079 +21° 41' 14.20" 1.000E-01 0.500 F 0.315 -0.286 18.5 V 0.70 0.32 c 691 0.59 Yes Yes
1999ML O C 2006-11-19.28384 1.000E-05 04:59:07.210 1.500E-01 0.500 F 0.047 0.108 +19° 57' 02.50" 1.000E-01 0.500 F 0.363 -0.028 20.0 V 0.70 0.02 c 691 0.24 Yes Yes
1999ML O C 2006-11-19.30115 1.000E-05 04:59:05.720 1.500E-01 0.500 F 0.047 0.216 +19° 56' 59.00" 1.000E-01 0.500 F 0.363 0.073 19.9 V 0.70 -0.08 c 691 0.48 Yes Yes
1999ML O C 2006-11-19.32192 1.000E-05 04:59:03.900 1.500E-01 0.500 F 0.047 -0.066 +19° 56' 54.70" 1.000E-01 0.500 F 0.363 0.129 20.0 V 0.70 0.02 c 691 0.28 Yes Yes
2006WW1 O C 2006-11-19.33696 1.000E-05 05:28:24.530 1.500E-01 0.500 F -0.114 -0.032 +20° 32' 50.00" 1.000E-01 0.500 F 0.106 -0.282 20.4 V 0.70 0.14 c 691 0.57 Yes Yes
2006WW1 O C 2006-11-19.35434 1.000E-05 05:28:23.050 1.500E-01 0.500 F -0.114 0.031 +20° 32' 38.20" 1.000E-01 0.500 F 0.106 -0.331 20.7 V 0.70 0.44 c 691 0.67 Yes Yes
2006WW1 O C 2006-11-19.37167 1.000E-05 05:28:21.580 1.500E-01 0.500 F -0.114 0.212 +20° 32' 26.30" 1.000E-01 0.500 F 0.106 -0.462 20.8 V 0.70 0.54 c 691 1.02 Yes Yes
Boreas O C H 2006-11-19.51317 1.000E-05 10:58:11.800 1.500E-01 0.500 F 0.435 0.176 +10° 21' 51.50" 1.000E-01 0.500 F 0.313 -0.012 20.9 V 0.70 -0.10 c 691 0.35 Yes Yes
Boreas O C H 2006-11-19.52562 1.000E-05 10:58:12.280 1.500E-01 0.500 F 0.435 -0.189 +10° 21' 48.00" 1.000E-01 0.500 F 0.313 0.142 20.9 V 0.70 -0.10 c 691 0.47 Yes Yes
Boreas O C H 2006-11-19.53806 1.000E-05 10:58:12.790 1.500E-01 0.500 F 0.435 -0.098 +10° 21' 43.80" 1.000E-01 0.500 F 0.313 -0.405 20.8 V 0.70 -0.20 c 691 0.83 Yes Yes
2000WN10 O C 2006-11-20.22107 1.000E-05 04:43:45.250 1.500E-01 0.500 F -0.135 -0.116 +18° 33' 36.20" 1.000E-01 0.500 F 0.206 -0.087 17.9 V 0.70 0.58 c 691 0.29 Yes Yes
2006WM3 O C 2006-11-20.22614 1.000E-05 04:40:55.100 1.500E-01 0.500 F -0.012 -0.058 +14° 52' 56.80" 1.000E-01 0.500 F 0.174 -0.086 20.8 V 0.70 0.51 c 691 0.22 Yes Yes
2000WN10 O C 2006-11-20.23877 1.000E-05 04:43:36.690 1.500E-01 0.500 F -0.135 2.228 +18° 35' 19.70" 1.000E-01 0.500 F 0.206 -1.874 19.5 V 0.70 2.19 c 691 5.81 No No
2006WM3 O C 2006-11-20.24382 1.000E-05 04:40:57.690 1.500E-01 0.500 F -0.012 0.187 +14° 52' 57.20" 1.000E-01 0.500 F 0.174 0.224 20.5 V 0.70 0.21 c 691 0.61 Yes Yes
2000WN10 O C 2006-11-20.25644 1.000E-05 04:43:28.070 1.500E-01 0.500 F -0.135 3.846 +18° 37' 03.40" 1.000E-01 0.500 F 0.206 -3.068 18.8 V 0.70 1.49 c 691 9.82 No Yes
2006WM3 O C 2006-11-20.26149 1.000E-05 04:41:00.230 1.500E-01 0.500 F -0.012 0.005 +14° 52' 57.60" 1.000E-01 0.500 F 0.174 0.652 20.1 V 0.70 -0.19 c 691 1.35 Yes Yes
2002HF8 O C H 2006-11-20.35536 1.000E-05 05:30:17.610 1.500E-01 0.500 F -0.045 0.415 +26° 24' 44.20" 1.000E-01 0.500 F 0.175 -0.533 c 691 1.36 Yes No
2002HF8 O C H 2006-11-20.36134 1.000E-05 05:30:17.090 1.500E-01 0.500 F -0.045 -0.130 +26° 24' 45.20" 1.000E-01 0.500 F 0.175 0.006 c 691 0.27 Yes No
2002HF8 O C H 2006-11-20.37865 1.000E-05 05:30:15.750 1.500E-01 0.500 F -0.045 0.517 +26° 24' 45.60" 1.000E-01 0.500 F 0.175 -0.908 c 691 2.10 Yes No
1997WU22 O C H 2006-11-20.41095 1.000E-05 05:54:55.350 1.500E-01 0.500 F -0.146 0.569 +26° 49' 59.40" 1.000E-01 0.500 F 0.174 -0.153 c 691 1.18 Yes No
1997WU22 O C H 2006-11-20.42826 1.000E-05 05:54:53.850 1.500E-01 0.500 F -0.146 -0.008 +26° 49' 52.90" 1.000E-01 0.500 F 0.174 0.188 19.1 V 0.70 0.84 c 691 0.38 Yes Yes
1997WU22 O C H 2006-11-20.44556 1.000E-05 05:54:52.400 1.500E-01 0.500 F -0.146 0.068 +26° 49' 45.80" 1.000E-01 0.500 F 0.174 -0.036 19.0 V 0.70 0.75 c 691 0.15 Yes Yes
2001XS30 O C H 2006-11-20.47367 1.000E-05 06:17:00.450 1.500E-01 0.500 F 0.090 0.572 +17° 31' 55.30" 1.000E-01 0.500 F 0.278 -0.292 20.9 V 0.70 0.37 c 691 1.29 Yes Yes
2001XS30 O C H 2006-11-20.49103 1.000E-05 06:16:58.420 1.500E-01 0.500 F 0.090 0.029 +17° 31' 46.10" 1.000E-01 0.500 F 0.278 -0.037 21.1 V 0.70 0.57 c 691 0.09 Yes Yes
2001XS30 O C H 2006-11-20.50831 1.000E-05 06:16:56.460 1.500E-01 0.500 F 0.090 0.334 +17° 31' 36.20" 1.000E-01 0.500 F 0.278 -0.504 c 691 1.21 Yes No
1998WM O C 2006-11-21.08426 1.000E-05 01:41:52.000 1.500E-01 0.500 F -0.064 -0.120 +10° 55' 08.30" 1.000E-01 0.500 F 0.245 0.002 18.1 V 0.70 0.65 c 691 0.24 Yes Yes
1998WM O C 2006-11-21.10277 1.000E-05 01:41:49.480 1.500E-01 0.500 F -0.064 -0.157 +10° 55' 20.50" 1.000E-01 0.500 F 0.245 -0.037 18.2 V 0.70 0.75 c 691 0.32 Yes Yes
1998WM O C 2006-11-21.12129 1.000E-05 01:41:46.950 1.500E-01 0.500 F -0.036 -0.274 +10° 55' 32.70" 1.000E-01 0.500 F 0.257 -0.072 18.0 V 0.70 0.55 c 691 0.57 Yes Yes
2006BG O C H 2006-11-21.16434 1.000E-05 03:57:32.020 1.500E-01 0.500 F 0.053 0.507 +25° 45' 31.10" 1.000E-01 0.500 F 0.377 -0.256 c 691 1.13 Yes No
1991AQ O C H 2006-11-21.16679 1.000E-05 04:07:11.770 1.500E-01 0.500 F 0.271 0.621 +25° 31' 43.40" 1.000E-01 0.500 F 0.358 -0.622 21.6 V 0.70 -0.03 c 691 1.76 Yes Yes
2006BG O C H 2006-11-21.18171 1.000E-05 03:57:30.100 1.500E-01 0.500 F 0.053 1.746 +25° 45' 24.50" 1.000E-01 0.500 F 0.377 -0.202 c 691 3.51 No No
1991AQ O C H 2006-11-21.18415 1.000E-05 04:07:10.320 1.500E-01 0.500 F 0.271 0.446 +25° 31' 40.80" 1.000E-01 0.500 F 0.358 -0.104 21.6 V 0.70 -0.03 c 691 0.92 Yes Yes
2006BG O C H 2006-11-21.19906 1.000E-05 03:57:27.990 1.500E-01 0.500 F 0.053 0.427 +25° 45' 18.40" 1.000E-01 0.500 F 0.377 0.365 21.5 V 0.70 -0.27 c 691 1.12 Yes Yes
1991AQ O C H 2006-11-21.20150 1.000E-05 04:07:08.850 1.500E-01 0.500 F 0.271 0.021 +25° 31' 37.30" 1.000E-01 0.500 F 0.358 -0.474 c 691 0.95 Yes No
2006WX3 O C 2006-11-21.21659 1.000E-05 04:20:27.740 1.500E-01 0.500 F -0.073 0.062 +29° 34' 14.20" 1.000E-01 0.500 F 0.196 -0.040 20.1 V 0.70 0.63 c 691 0.16 Yes Yes
2006WX3 O C 2006-11-21.23392 1.000E-05 04:20:28.750 1.500E-01 0.500 F -0.073 -0.123 +29° 32' 19.90" 1.000E-01 0.500 F 0.196 -0.318 19.4 V 0.70 -0.07 c 691 0.73 Yes Yes
2006WX3 O C 2006-11-21.25127 1.000E-05 04:20:29.770 1.500E-01 0.500 F -0.073 0.121 +29° 30' 26.00" 1.000E-01 0.500 F 0.196 0.022 19.6 V 0.70 0.13 c 691 0.26 Yes Yes
2006UM O C t 2006-11-21.29841 1.000E-05 05:01:17.750 1.500E-01 0.500 F 0.058 0.173 +29° 54' 24.70" 1.000E-01 0.500 F 0.177 -0.790 16.9 V 0.70 0.70 c 691 1.63 Yes Yes
2006UM O C H 2006-11-21.31575 1.000E-05 05:01:19.420 1.500E-01 0.500 F 0.058 0.316 +29° 56' 09.40" 1.000E-01 0.500 F 0.177 -1.812 c 691 3.66 No No
2006UM O C H 2006-11-21.33308 1.000E-05 05:01:21.080 1.500E-01 0.500 F 0.058 0.422 +29° 57' 55.20" 1.000E-01 0.500 F 0.177 -1.550 c 691 3.20 No No
Anteros O C 2006-11-21.40144 1.000E-05 05:44:33.730 1.500E-01 0.500 F 0.041 0.217 +21° 49' 20.90" 1.000E-01 0.500 F 0.256 -0.150 17.4 V 0.70 0.20 c 691 0.53 Yes Yes
2006WN1 O C 2006-11-21.41137 1.000E-05 05:45:28.000 1.500E-01 0.500 F 0.041 0.022 +21° 36' 34.70" 1.000E-01 0.500 F 0.256 -0.283 20.7 V 0.70 0.02 c 691 0.57 Yes Yes
Anteros O C 2006-11-21.41882 1.000E-05 05:44:32.320 1.500E-01 0.500 F 0.041 -0.010 +21° 49' 12.00" 1.000E-01 0.500 F 0.256 0.009 17.5 V 0.70 0.30 c 691 0.03 Yes Yes
2006WN1 O C 2006-11-21.42875 1.000E-05 05:45:26.430 1.500E-01 0.500 F 0.041 -0.012 +21° 36' 30.60" 1.000E-01 0.500 F 0.256 -0.041 20.6 V 0.70 -0.08 c 691 0.09 Yes Yes
Anteros O C 2006-11-21.43621 1.000E-05 05:44:30.940 1.500E-01 0.500 F 0.041 0.181 +21° 49' 02.70" 1.000E-01 0.500 F 0.256 -0.183 17.3 V 0.70 0.10 c 691 0.51 Yes Yes
2006WN1 O C 2006-11-21.44614 1.000E-05 05:45:24.870 1.500E-01 0.500 F 0.041 0.084 +21° 36' 26.20" 1.000E-01 0.500 F 0.256 -0.061 20.5 V 0.70 -0.18 c 691 0.21 Yes Yes
1997AQ18 O C H 2006-11-21.50701 1.000E-05 10:47:22.160 1.500E-01 0.500 F 0.488 0.534 +06° 27' 11.30" 1.000E-01 0.500 F 0.392 -0.296 21.3 V 0.70 -0.05 c 691 1.22 Yes Yes
1997AQ18 O C H 2006-11-21.51945 1.000E-05 10:47:22.930 1.500E-01 0.500 F 0.488 -0.106 +06° 26' 58.80" 1.000E-01 0.500 F 0.392 -0.234 21.1 V 0.70 -0.25 c 691 0.51 Yes Yes
1997AQ18 O C H 2006-11-21.53195 1.000E-05 10:47:23.760 1.500E-01 0.500 F 0.488 0.110 +06° 26' 46.40" 1.000E-01 0.500 F 0.392 -0.009 21.2 V 0.70 -0.15 c 691 0.22 Yes Yes
2000XG47 O C 2006-11-22.07428 1.000E-05 01:52:23.690 1.500E-01 0.500 F -0.213 0.017 +09° 40' 57.80" 1.000E-01 0.500 F 0.313 -0.102 20.3 V 0.70 0.49 c 691 0.21 Yes Yes
2000XG47 O C 2006-11-22.08710 1.000E-05 01:52:22.530 1.500E-01 0.500 F -0.213 0.081 +09° 40' 59.50" 1.000E-01 0.500 F 0.313 -0.183 20.3 V 0.70 0.49 c 691 0.40 Yes Yes
2000XG47 O C 2006-11-22.09992 1.000E-05 01:52:21.350 1.500E-01 0.500 F -0.213 -0.128 +09° 41' 01.30" 1.000E-01 0.500 F 0.313 -0.160 20.3 V 0.70 0.49 c 691 0.41 Yes Yes
1999JT3 O C 2006-11-22.15886 1.000E-05 04:07:40.200 1.500E-01 0.500 F -0.055 -0.174 +20° 06' 59.40" 1.000E-01 0.500 F 0.340 -0.079 19.4 V 0.70 0.15 c 691 0.38 Yes Yes
2006WH1 O C 2006-11-22.15886 1.000E-05 04:07:30.600 1.500E-01 0.500 F -0.067 0.187 +21° 05' 30.20" 1.000E-01 0.500 F 0.300 0.146 18.2 V 0.70 0.41 c 691 0.48 Yes Yes
2006VT2 O C 2006-11-22.16633 1.000E-05 03:47:59.860 1.500E-01 0.500 F -0.017 -0.116 +19° 51' 27.80" 1.000E-01 0.500 F 0.386 -0.051 18.9 V 0.70 0.30 c 691 0.25 Yes Yes
1999JT3 O C 2006-11-22.17628 1.000E-05 04:07:38.760 1.500E-01 0.500 F -0.055 0.006 +20° 06' 59.50" 1.000E-01 0.500 F 0.340 0.034 20.0 V 0.70 0.75 c 691 0.07 Yes Yes

[1-200] [201-400] [401-600] [601-800] [801-1000] [1001-1200] [1201-1400] [1401-1600] [1601-1800] [1801-2000] [2001-2200] [2201-2400] [2401-2600] [2601-2800] [2801-3000] [3001-3200] [3201-3400] [3401-3600] [3601-3800] [3801-4000] [4001-4200] [4201-4400] [4401-4600] [4601-4800] [4801-5000] [5001-5200] [5201-5400] [5401-5600] [5601-5800] [5801-6000] [6001-6200] [6201-6400] [6401-6600] [6601-6800] [6801-7000] [7001-7200] [7201-7400] [7401-7600] [7601-7800] [7801-8000] [8001-8200] [8201-8400] [8401-8600] [8601-8800] [8801-9000] [9001-9200] [9201-9400] [9401-9600] [9601-9800] [9801-10000] [10001-10200] [10201-10400] [10401-10600] [10601-10800] [10801-11000] [11001-11200] [11201-11400] [11401-11600] [11601-11800] [11801-12000] [12001-12200] [12201-12400] [12401-12600] [12601-12800] [12801-13000] [13001-13200] [13201-13400] [13401-13600] [13601-13800] [13801-14000] [14001-14200] [14201-14400] [14401-14600] [14601-14800] [14801-15000] [15001-15200] [15201-15400] [15401-15600] [15601-15800] [15801-16000] [16001-16200] [16201-16400] [16401-16600] [16601-16800] [16801-17000] [17001-17200] [17201-17400] [17401-17600] [17601-17800] [17801-18000] [18001-18200] [18201-18400] [18401-18600] [18601-18800] [18801-19000] [19001-19200] [19201-19400] [19401-19600] [19601-19800] [19801-20000] [20001-20200] [20201-20400] [20401-20600] [20601-20800] [20801-21000] [21001-21200] [21201-21400] [21401-21600] [21601-21800] [21801-22000] [22001-22200] [22201-22400] [22401-22600] [22601-22800] [22801-23000] [23001-23200] [23201-23400] [23401-23600] [23601-23800] [23801-24000] [24001-24200] [24201-24400] [24401-24600] [24601-24800] [24801-25000] [25001-25200] [25201-25400] [25401-25600] [25601-25800] [25801-26000] [26001-26200] [26201-26400] [26401-26600] [26601-26800] [26801-27000] [27001-27200] [27201-27400] [27401-27600] [27601-27800] [27801-28000] [28001-28200] [28201-28400] [28401-28600] [28601-28800] [28801-29000] [29001-29200] [29201-29400] [29401-29600] [29601-29800] [29801-30000] [30001-30200] [30201-30400] [30401-30600] [30601-30800] [30801-31000] [31001-31200] [31201-31400] [31401-31600] [31601-31800] [31801-32000] [32001-32200] [32201-32400] [32401-32600] [32601-32800] [32801-33000] [33001-33200] [33201-33400] [33401-33600] [33601-33800] [33801-34000] [34001-34200] [34201-34400] [34401-34600] [34601-34800] [34801-35000] [35001-35200] [35201-35400] [35401-35600] [35601-35800] [35801-36000] [36001-36200] [36201-36400] [36401-36600] [36601-36800] [36801-37000] [37001-37200] [37201-37400] [37401-37600] [37601-37800] [37801-38000] [38001-38200] [38201-38400] [38401-38600] [38601-38800] [38801-39000] [39001-39200] [39201-39400] [39401-39600] [39601-39800] [39801-40000] [40001-40200] [40201-40400] [40401-40600] [40601-40800] [40801-41000] [41001-41200] [41201-41400] [41401-41600] [41601-41800] [41801-42000] [42001-42200] [42201-42400] [42401-42600] [42601-42800] [42801-43000] [43001-43200] [43201-43400] [43401-43600] [43601-43800] [43801-44000] [44001-44200] [44201-44400] [44401-44600] [44601-44800] [44801-45000] [45001-45200] [45201-45400] [45401-45600] [45601-45800] [45801-46000] [46001-46200] [46201-46400] [46401-46600] [46601-46800] [46801-47000] [47001-47200] [47201-47400] [47401-47600] [47601-47800] [47801-48000] [48001-48200] [48201-48400] [48401-48600] [48601-48800] [48801-49000] [49001-49200] [49201-49400] [49401-49600] [49601-49800] [49801-50000] [50001-50200] [50201-50400] [50401-50600] [50601-50741]